Eden, Idaho
Current Conditions -  °F | °C
As of 10:53 PM on Saturday 25 Oct 2014 (Local Time) from KJER Reporting Station
Broken Clouds Broken Clouds  
Wind Chill: 59°   Ceiling: 11000
Heat Index: 59°   Visibility: 10mi
Dew Point: 31°   Wind: 10mph
Humidity: 35%   Direction: 230°SW
Pressure: 29.9"   Gusts: NA
Location:  42.61°N, 114.21°W
Report Text: KJER 260453Z AUTO 23009KT 10SM BKN110 15/M01 A2990 RMK AO2 SLP094 T01501006
Loading
Personal Weather Stations






























Interactive Weather Map
Tropical Storm Tracking
New forecast layout! Learn more

10-Day Weather Forecast

Advertisements
Track Severe Weather on mobile